Terminal Aerodrome Forecast
Issued by NWS

Home | Current Version | Previous Version | Text Only | Print | Product List | Glossary On
Versions: 1 2 3 4 5 6 7 8 9 10 11 12 13 14 15
000
FTUS45 KRIW 020531
TAFLND
TAF
KLND 020531Z 0206/0306 32007KT P6SM VCSH SCT100
     FM020800 VRB05KT P6SM FEW120
     FM022100 VRB08G15KT P6SM VCTS SCT080CB
     FM030500 VRB06KT P6SM FEW120=

USA.gov is the U.S. government's official web portal to all federal, state and local government web resources and services.